Terminal Aerodrome Forecast
Issued by NWS

Home | Current Version | Previous Version | Text Only | Print | Product List | Glossary On
Versions: 1 2 3 4 5 6 7 8 9 10 11 12 13 14
988
FTUS45 KABQ 211131
TAFTCC
TAF
KTCC 211131Z 2112/2212 24006KT P6SM SKC
     FM211700 23018G28KT P6SM SKC
     FM220100 20013KT P6SM FEW100=

USA.gov is the U.S. government's official web portal to all federal, state and local government web resources and services.